EKYT

Aalborg Airport

Airport
ICAO code
EKYT
IATA Code
AAL
Summary
ICAO Region
EUR
ICAO Territory
Location

Aalborg, Nordjylland

Serving
Aalborg
Elevation
10 ft
Coordinates
57° 5' 40" N , 9° 51' 21" E
KCC
Metar
Observation
EKYT 301220Z AUTO 30018G29KT 9999 FEW130/// 07/02 Q0995
Station
Aalborg
Date/Time
2023-01-30 13:20:00
Wind direction
300°
Wind speed
18 kts
Lowest cloud amount
few clouds
Temperature
7°C
Dew point
2°C
Humidity
70%
QNH
995 hPa
Weather condition
n/a

Description

International airport serving Aalborg and northern Denmark; joint civil military use with parallel runways of similar length.

Climatology

Temperate Marine climate/Oceanic climate (Köppen climate classification Cfb). Moderately cool summer and comparatively warm winter with a temperature range of only 14°C. Prevailing south-westerly winds.

Runways

Designator Length Width Surface Rops
08R/26L 2549 23 ASP Yes/Yes
08L/26R 2654 45 PEM Yes/Yes

Airport map

Aerial View

Airport accidents

SKYbrary Partners:

Safety knowledge contributed by: